Time;durP1;ratioP1;P1;durP2;ratioP2;P2;SDS_P1;SDS_P2;PMS_P1;PMS_P2;Temp;Humidity;BMP_temperature;BMP_pressure;BME280_temperature;BME280_humidity;BME280_pressure;Samples;Min_cycle;Max_cycle;Signal;HPM_P1;HPM_P2
2024/01/24 00:00:05;;;;;;;2.97;2.65;;;11.80;99.90;;;;;;5027733;28;20169;-85
2024/01/24 00:02:30;;;;;;;4.45;3.15;;;12.00;99.90;;;;;;5009559;28;20408;-85
2024/01/24 00:04:56;;;;;;;5.57;3.10;;;12.10;99.90;;;;;;5025060;28;20104;-84
2024/01/24 00:07:22;;;;;;;5.15;3.30;;;11.90;99.90;;;;;;5008986;28;20136;-84
2024/01/24 00:09:47;;;;;;;6.30;3.00;;;11.70;99.90;;;;;;5028507;28;20132;-85
2024/01/24 00:12:13;;;;;;;5.63;2.83;;;11.90;99.90;;;;;;5028544;28;20068;-86
2024/01/24 00:14:38;;;;;;;5.65;2.80;;;12.00;99.90;;;;;;5010685;28;20045;-84
2024/01/24 00:17:05;;;;;;;4.32;2.70;;;11.90;99.90;;;;;;5027612;28;20127;-85
2024/01/24 00:19:31;;;;;;;3.25;2.80;;;13.20;99.90;;;;;;4991061;28;20046;-85
2024/01/24 00:21:56;;;;;;;6.25;2.85;;;12.20;99.90;;;;;;5017527;28;20059;-85
2024/01/24 00:24:22;;;;;;;9.18;3.00;;;11.90;99.90;;;;;;5027855;28;20724;-84
2024/01/24 00:26:47;;;;;;;3.33;2.53;;;12.30;99.90;;;;;;5028221;28;20111;-86
2024/01/24 00:29:13;;;;;;;4.97;2.40;;;12.50;99.90;;;;;;5010546;28;20077;-87
2024/01/24 00:31:39;;;;;;;3.97;2.55;;;13.50;99.90;;;;;;5003848;28;20067;-85
2024/01/24 00:34:05;;;;;;;7.03;2.90;;;12.20;99.90;;;;;;5035507;28;20045;-88
2024/01/24 00:36:31;;;;;;;6.10;3.00;;;12.00;99.90;;;;;;5029108;28;20049;-85
2024/01/24 00:38:57;;;;;;;4.50;2.58;;;13.60;99.90;;;;;;5026816;28;20695;-85
2024/01/24 00:41:22;;;;;;;5.15;3.00;;;12.20;99.90;;;;;;5009917;28;20768;-84
2024/01/24 00:43:48;;;;;;;2.38;2.17;;;12.80;99.90;;;;;;5027307;28;20048;-85
2024/01/24 00:46:14;;;;;;;4.00;2.60;;;12.10;99.90;;;;;;5028910;28;20100;-86
2024/01/24 00:48:39;;;;;;;4.05;2.50;;;12.30;99.90;;;;;;4992924;28;20460;-85
2024/01/24 00:51:05;;;;;;;5.47;2.40;;;12.30;99.90;;;;;;5027788;28;20410;-85
2024/01/24 00:53:34;;;;;;;5.45;2.10;;;12.20;99.90;;;;;;4993027;28;20104;-86
2024/01/24 00:56:03;;;;;;;5.40;2.35;;;12.40;99.90;;;;;;4994943;28;20060;-85
2024/01/24 00:58:28;;;;;;;3.92;1.83;;;12.70;99.90;;;;;;5009977;28;20041;-86
2024/01/24 01:00:55;;;;;;;3.50;1.90;;;12.30;99.90;;;;;;5026477;28;20126;-86
2024/01/24 01:03:21;;;;;;;2.95;1.70;;;12.10;99.90;;;;;;4999621;28;20057;-83
2024/01/24 01:05:46;;;;;;;4.15;2.10;;;12.80;99.90;;;;;;5010756;28;20055;-83
2024/01/24 01:08:12;;;;;;;4.95;2.00;;;12.50;99.90;;;;;;5010306;28;20073;-84
2024/01/24 01:10:38;;;;;;;4.65;2.53;;;14.30;99.90;;;;;;4993391;28;20486;-83
2024/01/24 01:13:04;;;;;;;4.45;1.98;;;12.50;99.90;;;;;;5028565;28;20053;-84
2024/01/24 01:15:29;;;;;;;3.47;1.80;;;11.80;99.90;;;;;;5017553;28;20065;-82
2024/01/24 01:17:55;;;;;;;2.63;1.85;;;12.10;99.90;;;;;;4992893;28;20385;-83
2024/01/24 01:20:21;;;;;;;3.75;1.50;;;13.70;99.90;;;;;;4993736;28;20041;-83
2024/01/24 01:22:47;;;;;;;2.85;1.73;;;12.40;99.90;;;;;;4993939;28;20140;-82
2024/01/24 01:25:12;;;;;;;3.55;1.80;;;12.30;99.90;;;;;;5009591;28;20049;-83
2024/01/24 01:27:39;;;;;;;2.80;1.40;;;12.50;99.90;;;;;;5009047;28;20091;-82
2024/01/24 01:30:07;;;;;;;1.98;1.20;;;12.50;99.90;;;;;;5003310;28;20093;-82
2024/01/24 01:32:33;;;;;;;3.35;1.10;;;12.70;99.90;;;;;;5010366;28;20527;-83
2024/01/24 01:34:59;;;;;;;2.03;1.00;;;12.40;99.90;;;;;;4995436;28;20130;-84
2024/01/24 01:37:25;;;;;;;3.28;1.05;;;13.50;99.90;;;;;;5014531;28;20045;-83
2024/01/24 01:39:51;;;;;;;1.60;0.98;;;13.00;99.90;;;;;;4996730;28;20056;-83
2024/01/24 01:42:17;;;;;;;1.70;1.00;;;12.50;99.90;;;;;;5031857;28;20045;-84
2024/01/24 01:44:46;;;;;;;2.22;1.02;;;12.90;99.90;;;;;;5032565;28;20050;-84
2024/01/24 01:47:13;;;;;;;2.97;1.10;;;12.30;99.90;;;;;;5013332;28;20045;-82
2024/01/24 01:49:40;;;;;;;2.50;0.90;;;12.90;99.90;;;;;;5014034;28;20033;-83
2024/01/24 01:52:07;;;;;;;0.93;0.80;;;12.60;99.90;;;;;;5013986;28;20045;-84
2024/01/24 01:54:33;;;;;;;1.88;1.02;;;12.60;99.90;;;;;;4997079;28;20110;-83
2024/01/24 01:56:59;;;;;;;2.58;0.95;;;12.40;99.90;;;;;;5014087;28;20041;-84
2024/01/24 01:59:26;;;;;;;1.15;0.60;;;12.70;99.90;;;;;;5014366;28;20037;-85
2024/01/24 02:01:54;;;;;;;2.72;1.17;;;12.40;99.90;;;;;;4997713;28;20045;-83
2024/01/24 02:04:21;;;;;;;2.65;1.05;;;12.30;99.90;;;;;;5012238;28;20179;-82
2024/01/24 02:06:47;;;;;;;3.10;0.80;;;12.50;99.90;;;;;;5011813;28;20045;-82
2024/01/24 02:09:15;;;;;;;1.65;1.00;;;12.40;99.90;;;;;;5013164;28;20053;-85
2024/01/24 02:11:40;;;;;;;2.85;0.93;;;12.50;99.90;;;;;;5013931;28;20042;-86
2024/01/24 02:14:06;;;;;;;3.40;1.30;;;13.30;99.90;;;;;;5042319;28;20045;-82
2024/01/24 02:16:32;;;;;;;3.13;1.25;;;12.60;99.90;;;;;;5037602;28;20048;-84
2024/01/24 02:18:58;;;;;;;3.30;1.00;;;12.80;99.90;;;;;;5030524;28;20045;-83
2024/01/24 02:21:24;;;;;;;4.45;1.20;;;12.20;99.90;;;;;;5013724;28;20526;-82
2024/01/24 02:23:50;;;;;;;3.30;1.10;;;12.10;99.90;;;;;;4996439;28;20042;-83
2024/01/24 02:26:16;;;;;;;1.42;0.90;;;12.70;99.90;;;;;;4995702;28;20056;-82
2024/01/24 02:28:42;;;;;;;2.67;1.10;;;12.20;99.90;;;;;;5029253;28;20046;-84
2024/01/24 02:31:07;;;;;;;5.00;1.15;;;12.70;99.90;;;;;;5030777;28;20570;-83
2024/01/24 02:33:33;;;;;;;3.78;1.08;;;12.00;99.90;;;;;;5012475;28;20056;-83
2024/01/24 02:35:58;;;;;;;4.80;1.00;;;12.30;99.90;;;;;;5029332;28;20060;-82
2024/01/24 02:38:24;;;;;;;3.47;1.00;;;12.20;99.90;;;;;;5011903;28;20171;-83
2024/01/24 02:40:50;;;;;;;6.97;1.40;;;12.50;99.90;;;;;;5029161;28;20042;-83
2024/01/24 02:43:15;;;;;;;2.75;1.00;;;12.20;99.90;;;;;;5010890;28;20037;-83
2024/01/24 02:45:41;;;;;;;6.45;1.40;;;12.70;99.90;;;;;;5027996;28;20168;-83
2024/01/24 02:48:07;;;;;;;2.55;0.70;;;12.60;99.90;;;;;;5029996;28;20084;-85
2024/01/24 02:50:33;;;;;;;1.77;0.70;;;12.20;99.90;;;;;;5012286;28;20046;-84
2024/01/24 02:52:58;;;;;;;3.45;1.00;;;11.80;99.90;;;;;;5028544;28;20183;-81
2024/01/24 02:55:24;;;;;;;6.95;1.27;;;11.90;99.90;;;;;;5029679;28;20520;-84
2024/01/24 02:57:50;;;;;;;5.18;1.15;;;12.00;99.90;;;;;;5012330;28;20062;-85
2024/01/24 03:00:16;;;;;;;7.82;1.95;;;12.40;99.90;;;;;;4995486;28;20056;-84
2024/01/24 03:02:41;;;;;;;7.07;1.40;;;11.70;99.90;;;;;;5012493;28;20053;-84
2024/01/24 03:05:10;;;;;;;5.40;1.30;;;11.70;99.90;;;;;;5031155;28;20282;-85
2024/01/24 03:07:37;;;;;;;8.02;2.20;;;12.10;99.90;;;;;;5029376;28;20037;-85
2024/01/24 03:10:04;;;;;;;5.10;1.50;;;11.30;99.90;;;;;;5010697;28;20037;-85
2024/01/24 03:12:30;;;;;;;11.30;1.90;;;11.40;99.90;;;;;;4995785;28;20049;-83
2024/01/24 03:14:55;;;;;;;10.35;2.10;;;11.30;99.90;;;;;;5013275;28;20403;-85
2024/01/24 03:17:25;;;;;;;11.10;2.45;;;11.10;99.90;;;;;;5035389;28;20041;-84
2024/01/24 03:19:50;;;;;;;9.55;2.63;;;11.30;99.90;;;;;;4993341;28;20084;-83
2024/01/24 03:22:16;;;;;;;8.20;2.10;;;11.10;99.90;;;;;;5029530;28;20073;-85
2024/01/24 03:24:42;;;;;;;10.60;2.30;;;11.20;99.90;;;;;;5028352;28;20045;-85
2024/01/24 03:27:07;;;;;;;9.90;2.50;;;11.30;99.90;;;;;;4995670;28;20045;-84
2024/01/24 03:29:35;;;;;;;10.65;2.05;;;11.10;99.90;;;;;;5010579;28;20052;-84
2024/01/24 03:32:01;;;;;;;11.35;2.30;;;10.60;99.90;;;;;;5011488;28;20041;-83
2024/01/24 03:34:30;;;;;;;10.65;2.63;;;10.80;99.90;;;;;;5009902;28;20056;-83
2024/01/24 03:36:56;;;;;;;8.13;1.77;;;10.90;99.90;;;;;;5028472;28;20125;-83
2024/01/24 03:39:21;;;;;;;12.50;2.72;;;10.90;99.90;;;;;;4995330;28;20128;-83
2024/01/24 03:41:47;;;;;;;11.20;2.13;;;11.00;99.90;;;;;;5010269;28;20461;-84
2024/01/24 03:44:12;;;;;;;8.52;1.98;;;10.90;99.90;;;;;;5028886;28;20041;-82
2024/01/24 03:46:38;;;;;;;9.52;2.65;;;10.90;99.90;;;;;;5011272;28;20049;-85
2024/01/24 03:49:04;;;;;;;12.15;2.42;;;11.00;99.90;;;;;;5009934;28;20044;-83
2024/01/24 03:51:30;;;;;;;10.88;2.45;;;10.80;99.90;;;;;;5014688;28;20396;-85
2024/01/24 03:53:56;;;;;;;9.75;1.77;;;10.80;99.90;;;;;;5025322;28;20050;-85
2024/01/24 03:56:22;;;;;;;13.18;2.80;;;10.90;99.90;;;;;;5028745;28;20115;-84
2024/01/24 03:58:48;;;;;;;12.90;3.13;;;10.80;99.90;;;;;;5028078;28;20045;-84
2024/01/24 04:01:14;;;;;;;13.68;3.10;;;11.10;99.90;;;;;;5010614;28;20092;-85
2024/01/24 04:03:39;;;;;;;14.70;3.08;;;10.80;99.90;;;;;;5010799;28;20096;-85
2024/01/24 04:06:05;;;;;;;15.90;3.28;;;10.90;99.90;;;;;;5010239;28;20142;-84
2024/01/24 04:08:31;;;;;;;12.52;3.03;;;11.20;99.90;;;;;;5027859;28;20575;-83
2024/01/24 04:10:57;;;;;;;17.23;2.97;;;11.20;99.90;;;;;;5028576;28;20041;-84
2024/01/24 04:13:23;;;;;;;15.63;3.50;;;11.10;99.90;;;;;;5005744;28;20058;-82
2024/01/24 04:15:49;;;;;;;16.77;3.63;;;11.10;99.90;;;;;;5015318;28;20041;-82
2024/01/24 04:18:14;;;;;;;12.32;2.70;;;11.20;99.90;;;;;;5028194;28;20056;-82
2024/01/24 04:20:40;;;;;;;14.05;3.40;;;11.30;99.90;;;;;;5002736;28;20046;-82
2024/01/24 04:23:05;;;;;;;17.20;3.03;;;11.30;99.90;;;;;;5009088;28;20045;-82
2024/01/24 04:25:31;;;;;;;14.55;3.88;;;11.50;99.90;;;;;;5010361;28;20091;-84
2024/01/24 04:27:57;;;;;;;16.58;3.03;;;12.20;99.90;;;;;;5027795;28;20056;-83
2024/01/24 04:30:23;;;;;;;16.27;3.47;;;11.10;99.90;;;;;;5026961;28;20049;-84
2024/01/24 04:32:48;;;;;;;22.40;3.28;;;11.20;99.90;;;;;;5010543;28;20050;-83
2024/01/24 04:35:14;;;;;;;16.45;3.97;;;12.30;99.90;;;;;;5030855;28;20033;-84
2024/01/24 04:37:40;;;;;;;18.80;3.45;;;11.10;99.90;;;;;;5022528;28;20049;-83
2024/01/24 04:40:06;;;;;;;17.42;3.38;;;11.10;99.90;;;;;;5008318;28;20095;-83
2024/01/24 04:42:32;;;;;;;16.27;3.13;;;11.40;99.90;;;;;;5008708;28;20041;-82
2024/01/24 04:44:58;;;;;;;17.83;3.67;;;11.10;99.90;;;;;;5027539;28;20114;-84
2024/01/24 04:47:24;;;;;;;16.05;3.00;;;11.20;99.90;;;;;;5009689;28;20045;-83
2024/01/24 04:49:49;;;;;;;16.80;3.63;;;11.20;99.90;;;;;;5008445;28;20146;-83
2024/01/24 04:52:15;;;;;;;13.52;3.35;;;11.20;99.90;;;;;;5009338;28;20408;-85
2024/01/24 04:54:44;;;;;;;20.13;3.70;;;10.90;99.90;;;;;;5010183;28;20158;-84
2024/01/24 04:57:09;;;;;;;13.73;3.45;;;11.20;99.90;;;;;;5026572;28;20103;-85
2024/01/24 04:59:35;;;;;;;22.67;3.70;;;11.50;99.90;;;;;;5009735;28;20041;-83
2024/01/24 05:02:05;;;;;;;20.90;4.88;;;10.80;99.90;;;;;;5027134;28;20103;-84
2024/01/24 05:04:31;;;;;;;23.60;3.95;;;11.10;99.90;;;;;;5010484;28;20052;-83
2024/01/24 05:06:57;;;;;;;17.42;3.92;;;11.00;99.90;;;;;;5008983;28;20058;-83
2024/01/24 05:09:22;;;;;;;15.65;4.20;;;11.50;99.90;;;;;;5008660;28;20688;-85
2024/01/24 05:11:48;;;;;;;18.75;5.15;;;11.10;99.90;;;;;;5023193;28;20048;-83
2024/01/24 05:14:14;;;;;;;20.17;4.45;;;12.30;99.90;;;;;;5026935;28;20411;-84
2024/01/24 05:16:41;;;;;;;12.38;3.97;;;11.10;99.90;;;;;;5009281;28;20053;-84
2024/01/24 05:19:06;;;;;;;23.25;4.40;;;10.90;99.90;;;;;;5007076;28;20037;-85
2024/01/24 05:21:40;;;;;;;19.90;4.55;;;10.90;99.90;;;;;;5027293;28;20114;-83
2024/01/24 05:24:06;;;;;;;19.23;3.95;;;10.90;99.90;;;;;;5027324;28;20052;-85
2024/01/24 05:26:31;;;;;;;23.05;4.65;;;11.10;99.90;;;;;;5007854;28;20041;-82
2024/01/24 05:28:57;;;;;;;28.35;5.30;;;10.90;99.90;;;;;;5026192;28;20048;-82
2024/01/24 05:31:22;;;;;;;22.17;4.35;;;10.70;99.90;;;;;;5007335;28;20549;-83
2024/01/24 05:33:48;;;;;;;24.50;4.22;;;11.00;99.90;;;;;;5025207;28;20049;-84
2024/01/24 05:36:14;;;;;;;20.45;4.25;;;10.70;99.90;;;;;;4990342;28;20060;-84
2024/01/24 05:38:40;;;;;;;27.10;5.22;;;10.60;99.90;;;;;;5006609;28;20067;-83
2024/01/24 05:41:05;;;;;;;19.60;4.90;;;10.50;99.90;;;;;;5008387;28;20049;-85
2024/01/24 05:43:31;;;;;;;22.10;4.22;;;10.60;99.90;;;;;;5008326;28;20081;-86
2024/01/24 05:45:56;;;;;;;20.60;4.25;;;10.60;99.90;;;;;;4993587;28;20061;-84
2024/01/24 05:48:22;;;;;;;24.23;5.95;;;10.60;99.90;;;;;;5012172;28;20072;-84
2024/01/24 05:50:47;;;;;;;24.90;5.13;;;10.50;99.90;;;;;;5004778;28;20411;-83
2024/01/24 05:53:13;;;;;;;23.70;4.68;;;10.40;99.90;;;;;;5025960;28;20042;-83
2024/01/24 05:55:39;;;;;;;25.70;5.68;;;10.50;99.90;;;;;;5008387;28;20033;-84
2024/01/24 05:58:05;;;;;;;25.77;5.10;;;10.30;99.90;;;;;;5026557;28;20088;-84
2024/01/24 06:00:31;;;;;;;28.50;5.07;;;10.50;99.90;;;;;;5010256;28;20053;-83
2024/01/24 06:02:57;;;;;;;25.17;5.30;;;10.30;99.90;;;;;;5008821;28;20055;-85
2024/01/24 06:05:22;;;;;;;26.98;4.97;;;11.40;99.90;;;;;;5025355;28;20549;-83
2024/01/24 06:07:49;;;;;;;25.38;5.43;;;10.30;99.90;;;;;;5026901;28;20041;-83
2024/01/24 06:10:18;;;;;;;28.58;5.85;;;10.40;99.90;;;;;;5026572;28;20080;-82
2024/01/24 06:12:43;;;;;;;33.80;6.38;;;10.20;99.90;;;;;;5007668;28;20041;-84
2024/01/24 06:15:09;;;;;;;30.33;5.47;;;10.40;99.90;;;;;;4991883;28;20095;-85
2024/01/24 06:17:35;;;;;;;24.20;5.03;;;10.90;99.90;;;;;;5008585;28;20079;-83
2024/01/24 06:20:00;;;;;;;22.42;5.28;;;10.20;99.90;;;;;;4978566;28;20046;-84
2024/01/24 06:22:26;;;;;;;27.80;5.72;;;10.30;99.90;;;;;;5026002;28;20072;-84
2024/01/24 06:24:52;;;;;;;31.75;5.35;;;10.30;99.90;;;;;;5030002;28;20507;-84
2024/01/24 06:27:18;;;;;;;29.52;5.88;;;10.30;99.90;;;;;;5028297;28;20041;-83
2024/01/24 06:29:44;;;;;;;22.52;4.78;;;10.10;99.90;;;;;;5012203;28;20052;-85
2024/01/24 06:32:09;;;;;;;24.95;5.47;;;10.30;99.90;;;;;;5030864;28;20042;-83
2024/01/24 06:34:35;;;;;;;21.08;6.10;;;10.10;99.90;;;;;;5031377;28;20061;-85
2024/01/24 06:37:01;;;;;;;26.13;5.63;;;10.30;99.90;;;;;;5044456;28;20045;-86
2024/01/24 06:39:27;;;;;;;24.23;5.53;;;10.10;99.90;;;;;;5028378;28;20083;-84
2024/01/24 06:41:53;;;;;;;30.20;5.30;;;10.30;99.90;;;;;;5012916;28;20117;-83
2024/01/24 06:44:19;;;;;;;24.52;5.95;;;10.10;99.90;;;;;;5029710;28;20052;-84
2024/01/24 06:46:44;;;;;;;21.90;5.50;;;10.30;99.90;;;;;;5011201;28;20517;-83
2024/01/24 06:49:10;;;;;;;25.77;6.50;;;10.70;99.90;;;;;;5031651;28;20556;-83
2024/01/24 06:51:40;;;;;;;32.03;5.85;;;10.20;99.90;;;;;;5011490;28;20380;-85
2024/01/24 06:54:06;;;;;;;31.60;5.55;;;11.20;99.90;;;;;;5022724;28;20045;-84
2024/01/24 06:56:32;;;;;;;26.38;6.07;;;10.10;99.90;;;;;;5022309;28;20052;-82
2024/01/24 06:58:58;;;;;;;25.02;6.35;;;9.30;99.90;;;;;;5049430;28;20167;-82
2024/01/24 07:01:24;;;;;;;26.50;5.40;;;10.10;99.90;;;;;;5010144;28;20191;-83
2024/01/24 07:03:49;;;;;;;31.10;6.82;;;10.10;99.90;;;;;;5031293;28;20053;-82
2024/01/24 07:06:15;;;;;;;33.05;5.47;;;10.20;99.90;;;;;;5012411;28;20111;-84
2024/01/24 07:08:41;;;;;;;30.70;6.75;;;;;;;;;;5013301;28;20048;-82
2024/01/24 07:11:07;;;;;;;27.55;6.00;;;;;;;;;;5030697;28;20037;-82
2024/01/24 07:13:34;;;;;;;30.75;6.07;;;;;;;;;;4997230;28;20325;-83
2024/01/24 07:16:02;;;;;;;26.23;6.40;;;;;;;;;;5030675;28;20049;-85
2024/01/24 07:18:28;;;;;;;30.33;6.18;;;;;;;;;;5011795;28;20049;-82
2024/01/24 07:20:54;;;;;;;32.13;7.28;;;;;;;;;;5030031;28;20045;-82
2024/01/24 07:23:20;;;;;;;26.95;5.05;;;;;;;;;;4996158;28;20049;-83
2024/01/24 07:25:46;;;;;;;27.67;6.28;;;;;;;;;;4996191;28;20056;-81
2024/01/24 07:28:12;;;;;;;31.92;6.30;;;;;;;;;;5029121;28;20034;-82
2024/01/24 07:30:38;;;;;;;29.42;5.75;;;;;;;;;;5029877;28;20045;-84
2024/01/24 07:33:05;;;;;;;25.67;5.10;;;;;;;;;;5040474;28;20068;-85
2024/01/24 07:35:31;;;;;;;23.38;6.25;;;;;;;;;;5036333;28;20056;-84
2024/01/24 07:37:58;;;;;;;22.85;5.72;;;;;;;;;;5012464;28;20053;-86
2024/01/24 07:40:24;;;;;;;27.52;6.50;;;;;;;;;;5012710;28;20471;-87
2024/01/24 07:42:50;;;;;;;27.15;5.88;;;;;;;;;;5029175;28;20049;-87
2024/01/24 07:45:17;;;;;;;27.50;5.43;;;;;;;;;;5012555;28;20049;-84
2024/01/24 07:47:44;;;;;;;29.25;5.65;;;;;;;;;;5030397;28;20049;-85
2024/01/24 07:50:11;;;;;;;23.27;5.68;;;;;;;;;;5013516;28;20049;-83
2024/01/24 07:52:37;;;;;;;26.98;6.07;;;;;;;;;;5011850;28;20542;-85
2024/01/24 07:55:03;;;;;;;22.90;5.25;;;;;;;;;;5012673;28;20073;-85
2024/01/24 07:57:29;;;;;;;32.72;6.95;;;;;;;;;;5010533;28;20067;-87
2024/01/24 07:59:55;;;;;;;34.40;6.30;;;;;;;;;;5011634;28;20045;-84
2024/01/24 08:02:21;;;;;;;22.63;5.68;;;;;;;;;;5011608;28;20085;-86
2024/01/24 08:04:48;;;;;;;29.02;5.80;;;;;;;;;;5012824;28;20104;-84
2024/01/24 08:07:14;;;;;;;32.55;6.30;;;;;;;;;;5034214;28;20100;-87
2024/01/24 08:09:40;;;;;;;35.15;6.47;;;;;;;;;;5029607;28;20049;-86
2024/01/24 08:12:10;;;;;;;30.13;5.97;;;;;;;;;;5012109;28;20411;-87
2024/01/24 08:14:36;;;;;;;28.65;6.18;;;;;;;;;;5024630;28;20049;-84
2024/01/24 08:17:02;;;;;;;29.23;6.05;;;;;;;;;;5011854;28;20054;-86
2024/01/24 08:19:28;;;;;;;28.48;5.93;;;;;;;;;;5029817;28;20102;-87
2024/01/24 08:21:54;;;;;;;25.83;6.40;;;;;;;;;;4995008;28;20091;-86
2024/01/24 08:24:21;;;;;;;33.72;7.10;;;;;;;;;;5012254;28;20131;-84
2024/01/24 08:26:50;;;;;;;36.22;6.93;;;;;;;;;;5001853;28;20094;-84
2024/01/24 08:29:17;;;;;;;30.00;6.47;;;;;;;;;;5049414;28;20044;-87
2024/01/24 08:31:43;;;;;;;29.77;6.25;;;;;;;;;;5049032;28;20128;-83
2024/01/24 08:34:09;;;;;;;25.15;5.78;;;;;;;;;;5042183;28;20049;-85
2024/01/24 08:36:35;;;;;;;31.60;6.88;;;;;;;;;;5031551;28;20045;-84
2024/01/24 08:39:03;;;;;;;29.23;5.70;;;;;;;;;;5048920;28;20569;-84
2024/01/24 08:41:29;;;;;;;33.35;6.93;;;;;;;;;;5011231;28;20042;-82
2024/01/24 08:43:58;;;;;;;31.80;6.32;;;;;;;;;;4991828;28;20536;-85
2024/01/24 08:46:24;;;;;;;30.63;6.45;;;;;;;;;;5010209;28;20140;-86
2024/01/24 08:48:52;;;;;;;31.73;6.93;;;10.00;99.90;;;;;;5011062;28;20049;-84
2024/01/24 08:51:18;;;;;;;33.15;7.18;;;10.60;99.90;;;;;;5029297;28;20041;-84
2024/01/24 08:53:44;;;;;;;32.97;6.75;;;9.80;99.90;;;;;;5029454;28;20523;-83
2024/01/24 08:56:13;;;;;;;29.40;6.68;;;11.50;99.90;;;;;;5029875;28;20148;-84
2024/01/24 08:58:39;;;;;;;28.70;6.45;;;10.80;99.90;;;;;;5029379;28;20049;-85
2024/01/24 09:01:06;;;;;;;34.15;7.55;;;9.80;99.90;;;;;;5011454;28;20037;-81
2024/01/24 09:03:32;;;;;;;28.42;6.15;;;9.80;99.90;;;;;;5030157;28;20141;-85
2024/01/24 09:05:57;;;;;;;29.75;6.07;;;9.80;99.90;;;;;;5036853;28;20172;-82
2024/01/24 09:08:25;;;;;;;35.90;7.13;;;10.10;99.90;;;;;;5011078;28;20128;-82
2024/01/24 09:10:52;;;;;;;28.77;6.63;;;10.20;99.90;;;;;;5030093;28;20445;-83
2024/01/24 09:13:21;;;;;;;28.40;5.78;;;9.90;99.90;;;;;;5029637;28;20176;-81
2024/01/24 09:15:47;;;;;;;33.22;7.10;;;9.90;99.90;;;;;;5022635;28;20073;-82
2024/01/24 09:18:14;;;;;;;30.55;7.07;;;10.00;99.90;;;;;;5010663;28;20037;-87
2024/01/24 09:20:39;;;;;;;30.33;6.68;;;9.80;99.90;;;;;;4995293;28;20045;-85
2024/01/24 09:23:05;;;;;;;31.90;6.28;;;10.90;99.90;;;;;;5011589;28;20047;-86
2024/01/24 09:25:31;;;;;;;26.08;5.22;;;9.90;99.90;;;;;;5012863;28;20048;-86
2024/01/24 09:27:56;;;;;;;30.38;6.43;;;10.10;99.90;;;;;;5012469;28;20124;-86
2024/01/24 09:30:22;;;;;;;34.95;7.55;;;9.80;99.90;;;;;;5012082;28;20046;-85
2024/01/24 09:32:48;;;;;;;23.33;5.63;;;10.00;99.90;;;;;;5012232;28;20137;-87
2024/01/24 09:35:16;;;;;;;29.58;6.45;;;9.80;99.90;;;;;;4996275;28;20041;-85
2024/01/24 09:37:41;;;;;;;30.80;6.60;;;12.00;99.90;;;;;;5012519;28;20034;-86
2024/01/24 09:40:09;;;;;;;24.95;5.85;;;9.60;99.90;;;;;;5030451;28;20273;-86
2024/01/24 09:42:41;;;;;;;27.30;7.35;;;10.20;99.90;;;;;;5012016;28;20045;-85
2024/01/24 09:45:08;;;;;;;;;;;10.00;99.90;;;;;;5011357;28;20543;-85
2024/01/24 09:47:34;;;;;;;32.20;6.95;;;10.20;99.90;;;;;;5010666;28;19925;-85
2024/01/24 09:50:04;;;;;;;24.60;5.45;;;9.80;99.90;;;;;;5028283;28;20049;-85
2024/01/24 09:52:32;;;;;;;28.17;6.72;;;9.90;99.90;;;;;;5028313;28;20112;-85
2024/01/24 09:55:00;;;;;;;32.55;5.97;;;10.20;99.90;;;;;;5029019;28;20041;-84
2024/01/24 09:57:26;;;;;;;33.17;6.35;;;9.80;99.90;;;;;;5031781;28;20051;-86
2024/01/24 09:59:53;;;;;;;29.17;5.47;;;10.10;99.90;;;;;;5032616;28;20136;-87
2024/01/24 10:02:18;;;;;;;32.45;5.97;;;10.00;99.90;;;;;;5014323;28;20089;-84
2024/01/24 10:04:44;;;;;;;27.60;5.10;;;10.40;99.90;;;;;;5014560;28;20088;-87
2024/01/24 10:07:11;;;;;;;27.73;5.63;;;10.20;99.90;;;;;;5014017;28;20053;-84
2024/01/24 10:09:37;;;;;;;26.92;6.05;;;10.00;99.90;;;;;;5032351;28;20415;-86
2024/01/24 10:12:04;;;;;;;32.20;6.32;;;10.60;99.90;;;;;;5016763;28;20052;-85
2024/01/24 10:14:30;;;;;;;23.40;5.47;;;10.40;99.90;;;;;;5017522;28;20675;-85
2024/01/24 10:16:57;;;;;;;23.48;5.47;;;10.30;99.90;;;;;;5017737;28;20051;-85
2024/01/24 10:19:24;;;;;;;28.38;6.25;;;10.30;99.90;;;;;;5050664;28;20060;-84
2024/01/24 10:21:50;;;;;;;29.75;6.95;;;10.30;99.90;;;;;;5052110;28;20427;-84
2024/01/24 10:24:16;;;;;;;27.83;5.82;;;10.30;99.90;;;;;;5033243;28;20049;-86
2024/01/24 10:26:44;;;;;;;26.00;5.53;;;10.20;99.90;;;;;;5051946;28;20119;-87
2024/01/24 10:29:11;;;;;;;24.52;5.72;;;10.80;99.90;;;;;;4985195;28;20506;-85
2024/01/24 10:31:37;;;;;;;32.10;5.10;;;11.30;99.90;;;;;;5032714;28;20041;-88
2024/01/24 10:34:06;;;;;;;27.23;6.22;;;10.30;99.90;;;;;;5050931;28;20060;-85
2024/01/24 10:36:33;;;;;;;23.98;5.07;;;10.40;99.90;;;;;;5015334;28;20048;-83
2024/01/24 10:39:03;;;;;;;20.05;5.03;;;10.80;99.90;;;;;;5030977;28;20045;-83
2024/01/24 10:41:30;;;;;;;31.27;5.32;;;10.70;99.90;;;;;;4996706;28;20514;-83
2024/01/24 10:43:59;;;;;;;30.33;5.43;;;11.80;99.90;;;;;;5028801;28;20049;-83
2024/01/24 10:46:25;;;;;;;29.00;6.05;;;10.60;99.90;;;;;;5013260;28;20049;-85
2024/01/24 10:48:52;;;;;;;22.42;5.32;;;10.70;99.90;;;;;;5013298;28;20052;-84
2024/01/24 10:51:18;;;;;;;26.02;6.32;;;10.60;99.90;;;;;;5013648;28;20454;-85
2024/01/24 10:53:45;;;;;;;17.20;4.28;;;10.60;99.90;;;;;;5031042;28;20045;-84
2024/01/24 10:56:15;;;;;;;27.95;4.95;;;11.30;99.90;;;;;;5011908;28;20045;-82
2024/01/24 10:58:42;;;;;;;24.23;5.38;;;10.60;99.90;;;;;;5011722;28;20049;-85
2024/01/24 11:01:08;;;;;;;24.40;5.43;;;10.70;99.90;;;;;;5030311;28;20042;-85
2024/01/24 11:03:34;;;;;;;23.48;5.57;;;10.70;99.90;;;;;;5012847;28;20483;-83
2024/01/24 11:06:05;;;;;;;22.17;4.97;;;10.70;99.90;;;;;;5030028;28;20041;-83
2024/01/24 11:09:23;;;;;;;23.58;4.90;;;11.10;99.90;;;;;;5022536;28;20045;-84
2024/01/24 11:11:53;;;;;;;20.88;4.60;;;11.10;99.90;;;;;;5039227;28;20045;-84
2024/01/24 11:14:34;;;;;;;19.75;4.55;;;10.80;99.90;;;;;;5050999;28;20164;-85
2024/01/24 11:17:02;;;;;;;19.10;4.33;;;12.50;99.90;;;;;;5051181;28;20044;-84
2024/01/24 11:19:29;;;;;;;14.55;3.42;;;11.20;99.90;;;;;;5038738;28;20045;-85
2024/01/24 11:22:03;;;;;;;21.75;4.78;;;11.50;99.90;;;;;;5029026;28;20045;-86
2024/01/24 11:24:44;;;;;;;14.05;3.05;;;12.60;99.90;;;;;;5043572;28;20056;-83
2024/01/24 11:27:35;;;;;;;20.55;4.57;;;11.10;99.90;;;;;;5033983;28;20077;-83
2024/01/24 11:30:16;;;;;;;15.38;3.50;;;11.00;99.90;;;;;;5011254;28;20045;-81
2024/01/24 11:32:48;;;;;;;20.88;4.15;;;11.00;99.90;;;;;;5012780;28;20096;-83
2024/01/24 11:35:36;;;;;;;22.73;4.47;;;12.50;99.90;;;;;;5012931;28;20048;-82
2024/01/24 11:38:16;;;;;;;19.67;3.97;;;11.10;99.90;;;;;;5011731;28;20049;-82
2024/01/24 11:40:47;;;;;;;11.30;3.20;;;11.10;99.90;;;;;;5008439;28;20084;-83
2024/01/24 11:43:31;;;;;;;19.23;4.40;;;10.90;99.90;;;;;;5011939;28;20045;-81
2024/01/24 11:46:02;;;;;;;12.02;3.97;;;11.20;99.90;;;;;;5028082;28;20115;-83
2024/01/24 11:48:29;;;;;;;18.38;3.70;;;11.30;99.90;;;;;;5024815;28;20050;-81
2024/01/24 11:50:59;;;;;;;20.88;4.05;;;12.60;99.90;;;;;;5030164;28;20038;-85
2024/01/24 11:53:26;;;;;;;19.30;4.38;;;10.80;99.90;;;;;;5029956;28;20049;-83
2024/01/24 11:55:58;;;;;;;16.02;4.60;;;11.30;99.90;;;;;;5030590;28;20115;-82
2024/01/24 11:58:25;;;;;;;23.30;5.45;;;11.50;99.90;;;;;;5026655;28;20044;-83
2024/01/24 12:00:55;;;;;;;19.27;4.95;;;12.30;99.90;;;;;;5021097;28;20050;-84
2024/01/24 12:03:21;;;;;;;20.73;4.15;;;10.50;99.90;;;;;;5011072;28;20060;-83
2024/01/24 12:05:47;;;;;;;29.02;4.63;;;10.90;99.90;;;;;;5010915;28;20479;-81
2024/01/24 12:08:13;;;;;;;24.83;4.47;;;10.90;99.90;;;;;;5010853;28;20060;-83
2024/01/24 12:10:39;;;;;;;25.13;4.93;;;12.40;99.90;;;;;;5009943;28;20042;-83
2024/01/24 12:13:06;;;;;;;18.40;4.22;;;10.70;99.90;;;;;;5027231;28;20064;-81
2024/01/24 12:15:34;;;;;;;24.08;4.00;;;10.40;99.90;;;;;;5008329;28;20454;-83
2024/01/24 12:18:13;;;;;;;15.40;3.70;;;10.80;99.90;;;;;;5026497;28;20110;-84
2024/01/24 12:20:52;;;;;;;13.70;3.47;;;10.90;99.90;;;;;;5010597;28;20048;-82
2024/01/24 12:23:18;;;;;;;19.20;4.32;;;11.00;99.90;;;;;;5029332;28;20081;-82
2024/01/24 12:25:44;;;;;;;21.95;4.30;;;11.00;99.90;;;;;;5029900;28;20088;-82
2024/01/24 12:28:11;;;;;;;22.38;5.22;;;10.80;99.90;;;;;;5047119;28;20126;-82
2024/01/24 12:30:37;;;;;;;16.98;3.83;;;10.80;99.90;;;;;;5010162;28;20499;-82
2024/01/24 12:33:04;;;;;;;23.88;4.65;;;10.70;99.90;;;;;;5009876;28;20099;-83
2024/01/24 12:35:31;;;;;;;24.83;4.05;;;10.80;99.90;;;;;;5042892;28;20117;-82
2024/01/24 12:38:01;;;;;;;14.88;3.35;;;12.10;99.90;;;;;;5010326;28;20081;-82
2024/01/24 12:40:31;;;;;;;20.35;3.97;;;10.90;99.90;;;;;;5027363;28;20057;-81
2024/01/24 12:42:58;;;;;;;18.55;4.25;;;10.80;99.90;;;;;;5028025;28;20705;-82
2024/01/24 12:45:25;;;;;;;18.65;3.53;;;10.90;99.90;;;;;;4994003;28;20559;-83
2024/01/24 12:47:53;;;;;;;21.80;4.28;;;11.10;99.90;;;;;;5009524;28;20931;-82
2024/01/24 12:50:20;;;;;;;26.75;4.65;;;10.70;99.90;;;;;;5014740;28;20057;-82